Time;durP1;ratioP1;P1;durP2;ratioP2;P2;SDS_P1;SDS_P2;PMS_P1;PMS_P2;Temp;Humidity;BMP_temperature;BMP_pressure;BME280_temperature;BME280_humidity;BME280_pressure;Samples;Min_cycle;Max_cycle;Signal;HPM_P1;HPM_P2
2023/01/16 00:00:27;;;;;;;;;;;20.90;40.30;;;;;;5138222;27;19970;-73
2023/01/16 00:02:55;;;;;;;;;;;20.80;40.40;;;;;;5137894;27;19958;-73
2023/01/16 00:05:21;;;;;;;;;;;20.80;40.50;;;;;;5156485;27;19919;-72
2023/01/16 00:07:46;;;;;;;;;;;20.70;40.60;;;;;;5138259;27;20429;-73
2023/01/16 00:10:12;;;;;;;;;;;20.60;40.70;;;;;;5156254;27;19991;-73
2023/01/16 00:12:37;;;;;;;;;;;20.60;40.90;;;;;;5156266;27;20301;-73
2023/01/16 00:15:04;;;;;;;;;;;20.50;40.90;;;;;;5137864;27;19930;-73
2023/01/16 00:17:29;;;;;;;;;;;20.50;41.00;;;;;;5155801;27;19969;-73
2023/01/16 00:19:55;;;;;;;;;;;20.40;41.10;;;;;;5156037;27;19923;-72
2023/01/16 00:22:20;;;;;;;;;;;20.40;41.10;;;;;;5137428;27;19923;-73
2023/01/16 00:24:46;;;;;;;;;;;20.30;41.10;;;;;;5137578;27;19923;-73
2023/01/16 00:27:14;;;;;;;;;;;20.30;41.20;;;;;;5155856;27;19919;-72
2023/01/16 00:29:42;;;;;;;;;;;20.30;41.20;;;;;;5137521;27;19926;-73
2023/01/16 00:32:10;;;;;;;;;;;20.40;41.30;;;;;;5155961;27;20389;-72
2023/01/16 00:34:35;;;;;;;;;;;20.30;41.20;;;;;;5137272;27;19954;-73
2023/01/16 00:37:04;;;;;;;;;;;20.30;41.20;;;;;;5155769;27;20431;-72
2023/01/16 00:39:29;;;;;;;;;;;20.40;41.20;;;;;;5154520;27;19926;-73
2023/01/16 00:41:55;;;;;;;;;;;20.30;41.20;;;;;;5136728;27;19919;-73
2023/01/16 00:44:20;;;;;;;;;;;20.40;41.20;;;;;;5155513;27;20293;-73
2023/01/16 00:46:46;;;;;;;;;;;20.30;41.10;;;;;;5155552;27;19976;-72
2023/01/16 00:49:11;;;;;;;;;;;20.40;41.10;;;;;;5137097;27;20007;-73
2023/01/16 00:51:37;;;;;;;;;;;20.40;41.10;;;;;;5136852;27;20002;-73
2023/01/16 00:54:02;;;;;;;;;;;20.40;41.10;;;;;;5136816;27;19919;-73
2023/01/16 00:56:28;;;;;;;;;;;20.30;41.10;;;;;;5136577;27;20051;-73
2023/01/16 00:58:53;;;;;;;;;;;20.40;41.10;;;;;;5119793;27;19923;-72
2023/01/16 01:01:19;;;;;;;;;;;20.40;41.10;;;;;;5155254;27;19919;-73
2023/01/16 01:03:44;;;;;;;;;;;20.40;41.10;;;;;;5155193;27;20191;-72
2023/01/16 01:06:11;;;;;;;;;;;20.40;41.00;;;;;;5136582;27;19978;-73
2023/01/16 01:08:37;;;;;;;;;;;20.40;41.00;;;;;;5136731;27;19919;-73
2023/01/16 01:11:06;;;;;;;;;;;20.40;41.00;;;;;;5155067;27;19926;-73
2023/01/16 01:13:32;;;;;;;;;;;20.40;41.00;;;;;;5136434;27;19919;-73
2023/01/16 01:15:57;;;;;;;;;;;20.40;41.00;;;;;;5136055;27;19930;-72
2023/01/16 01:18:23;;;;;;;;;;;20.40;41.00;;;;;;5136300;27;19926;-72
2023/01/16 01:20:48;;;;;;;;;;;20.40;41.00;;;;;;5136348;27;19919;-72
2023/01/16 01:23:17;;;;;;;;;;;20.40;41.00;;;;;;5136557;27;19966;-72
2023/01/16 01:25:42;;;;;;;;;;;20.40;41.00;;;;;;5136107;27;20374;-73
2023/01/16 01:28:08;;;;;;;;;;;20.40;40.90;;;;;;5136169;27;19926;-73
2023/01/16 01:30:33;;;;;;;;;;;20.40;40.90;;;;;;5136504;27;19919;-73
2023/01/16 01:33:01;;;;;;;;;;;20.40;40.90;;;;;;5154581;27;19919;-73
2023/01/16 01:35:27;;;;;;;;;;;20.40;41.00;;;;;;5135301;27;19923;-72
2023/01/16 01:37:52;;;;;;;;;;;20.40;41.00;;;;;;5136308;27;19961;-72
2023/01/16 01:40:18;;;;;;;;;;;20.40;41.00;;;;;;5154694;27;19919;-72
2023/01/16 01:42:51;;;;;;;;;;;20.30;41.00;;;;;;5136196;27;19970;-72
2023/01/16 01:45:21;;;;;;;;;;;20.40;41.10;;;;;;5136035;27;19923;-73
2023/01/16 01:47:51;;;;;;;;;;;20.40;41.00;;;;;;5154520;27;20002;-72
2023/01/16 01:50:20;;;;;;;;;;;20.40;41.00;;;;;;5135490;27;19930;-73
2023/01/16 01:52:46;;;;;;;;;;;20.40;41.00;;;;;;5136128;27;20037;-72
2023/01/16 01:55:13;;;;;;;;;;;20.30;40.90;;;;;;5135505;27;20018;-73
2023/01/16 01:57:46;;;;;;;;;;;20.40;41.00;;;;;;5135628;27;20013;-73
2023/01/16 02:00:14;;;;;;;;;;;20.40;41.00;;;;;;5135662;27;20002;-72
2023/01/16 02:02:43;;;;;;;;;;;20.40;41.00;;;;;;5154403;27;20445;-72
2023/01/16 02:05:09;;;;;;;;;;;20.40;41.00;;;;;;5135197;27;19927;-73
2023/01/16 02:07:34;;;;;;;;;;;20.30;41.00;;;;;;5153885;27;20282;-72
2023/01/16 02:10:05;;;;;;;;;;;20.30;41.00;;;;;;5135878;27;20018;-73
2023/01/16 02:12:31;;;;;;;;;;;20.30;41.10;;;;;;5135516;27;19926;-73
2023/01/16 02:14:57;;;;;;;;;;;20.30;41.00;;;;;;5135435;27;19923;-73
2023/01/16 02:23:09;;;;;;;;;;;20.30;41.10;;;;;;5090478;28;19919;-71
2023/01/16 02:25:55;;;;;;;;;;;20.30;41.00;;;;;;5088817;28;19976;-71
2023/01/16 02:42:07;;;;;;;;;;;20.20;41.10;;;;;;5110269;27;19918;-71
2023/01/16 02:47:18;;;;;;;;;;;20.20;41.10;;;;;;5110246;27;19919;-70
2023/01/16 02:49:50;;;;;;;;;;;20.20;41.10;;;;;;5109192;28;20180;-71
2023/01/16 02:52:30;;;;;;;;;;;20.20;41.10;;;;;;5108831;28;20386;-71
2023/01/16 02:55:03;;;;;;;;;;;20.20;41.10;;;;;;5108941;28;19988;-71
2023/01/16 02:57:33;;;;;;;;;;;20.20;41.10;;;;;;5108802;28;19920;-71
2023/01/16 02:59:59;;;;;;;;;;;20.20;41.10;;;;;;5108795;28;19920;-71
2023/01/16 03:02:24;;;;;;;;;;;20.20;41.00;;;;;;5109799;28;19920;-71
2023/01/16 03:04:51;;;;;;;;;;;20.30;41.10;;;;;;5108930;28;20260;-71
2023/01/16 03:10:26;;;;;;;;;;;20.30;41.00;;;;;;5130765;27;20540;-71
2023/01/16 03:13:11;;;;;;;;;;;20.30;40.90;;;;;;5129133;28;19969;-71
2023/01/16 03:21:24;;;;;;;;;;;20.50;40.70;;;;;;5110191;27;19934;-70
2023/01/16 03:23:52;;;;;;;;;;;20.50;40.60;;;;;;5108983;28;20395;-70
2023/01/16 03:26:27;;;;;;;;;;;20.60;40.50;;;;;;5109298;28;19920;-71
2023/01/16 03:34:20;;;;;;;;;;;20.60;40.20;;;;;;5127518;27;1863668;-71
2023/01/16 03:36:52;;;;;;;;;;;20.70;40.10;;;;;;5174347;27;19919;-71
2023/01/16 03:39:23;;;;;;;;;;;20.70;40.10;;;;;;5174566;27;19918;-70
2023/01/16 03:41:54;;;;;;;;;;;20.80;40.10;;;;;;5174674;27;19922;-71
2023/01/16 03:44:25;;;;;;;;;;;20.70;40.10;;;;;;5174407;27;19918;-71
2023/01/16 03:46:51;;;;;;;;;;;20.70;40.10;;;;;;5158516;27;19919;-70
2023/01/16 03:49:19;;;;;;;;;;;20.70;40.10;;;;;;5151307;27;19988;-73
2023/01/16 03:51:48;;;;;;;;;;;20.60;40.20;;;;;;5132862;27;20314;-73
2023/01/16 03:54:18;;;;;;;;;;;20.70;40.20;;;;;;5151142;27;19919;-72
2023/01/16 03:56:47;;;;;;;;;;;20.60;40.20;;;;;;5132557;27;20366;-73
2023/01/16 03:59:13;;;;;;;;;;;20.60;40.30;;;;;;5132692;27;19920;-73
2023/01/16 04:01:56;;;;;;;;;;;20.60;40.30;;;;;;5151135;27;19927;-72
2023/01/16 04:07:07;;;;;;;;;;;20.50;40.30;;;;;;5110306;27;19934;-71
2023/01/16 04:12:25;;;;;;;;;;;20.50;40.50;;;;;;5110333;27;20297;-71
2023/01/16 04:14:53;;;;;;;;;;;20.40;41.20;;;;;;5109275;28;20260;-70
2023/01/16 04:17:19;;;;;;;;;;;20.50;40.50;;;;;;5108967;28;19920;-71
2023/01/16 04:19:45;;;;;;;;;;;20.40;40.50;;;;;;5109345;28;19930;-70
2023/01/16 04:22:19;;;;;;;;;;;20.30;40.50;;;;;;5109099;28;20290;-70
2023/01/16 04:24:45;;;;;;;;;;;20.40;40.60;;;;;;5108771;28;19920;-71
2023/01/16 04:27:10;;;;;;;;;;;20.40;40.50;;;;;;5109061;28;19927;-71
2023/01/16 04:29:36;;;;;;;;;;;20.30;40.50;;;;;;5108735;28;20019;-70
2023/01/16 04:32:01;;;;;;;;;;;20.40;40.50;;;;;;5108504;28;19935;-71
2023/01/16 04:34:27;;;;;;;;;;;20.40;40.40;;;;;;5109945;28;19964;-71
2023/01/16 04:36:52;;;;;;;;;;;20.40;40.50;;;;;;5109685;28;19920;-70
2023/01/16 04:39:18;;;;;;;;;;;20.40;40.50;;;;;;5108884;28;19920;-70
2023/01/16 04:41:46;;;;;;;;;;;20.30;40.40;;;;;;5108377;28;19920;-70
2023/01/16 04:44:12;;;;;;;;;;;20.30;40.40;;;;;;5108423;28;19924;-72
2023/01/16 04:46:38;;;;;;;;;;;20.30;40.40;;;;;;5109699;28;19958;-71
2023/01/16 04:49:04;;;;;;;;;;;20.30;40.40;;;;;;5109542;28;19963;-70
2023/01/16 04:51:30;;;;;;;;;;;20.30;40.40;;;;;;5109372;28;19930;-71
2023/01/16 04:53:56;;;;;;;;;;;20.30;40.40;;;;;;5109506;28;20020;-70
2023/01/16 04:56:22;;;;;;;;;;;20.30;40.50;;;;;;5109442;28;19979;-71
2023/01/16 04:58:49;;;;;;;;;;;20.30;40.40;;;;;;5142785;27;19920;-70
2023/01/16 05:01:15;;;;;;;;;;;20.30;40.50;;;;;;5109349;28;20425;-71
2023/01/16 05:03:40;;;;;;;;;;;20.30;40.30;;;;;;5108393;28;19924;-72
2023/01/16 05:06:06;;;;;;;;;;;20.40;40.40;;;;;;5109328;28;19924;-72
2023/01/16 05:08:32;;;;;;;;;;;20.40;40.30;;;;;;5109118;28;20300;-72
2023/01/16 05:11:00;;;;;;;;;;;20.30;40.30;;;;;;5107784;28;20337;-72
2023/01/16 05:13:27;;;;;;;;;;;20.40;40.30;;;;;;5109305;28;19985;-72
2023/01/16 05:15:53;;;;;;;;;;;20.30;41.00;;;;;;5109221;28;20011;-73
2023/01/16 05:18:18;;;;;;;;;;;20.40;40.30;;;;;;5107105;28;19920;-72
2023/01/16 05:20:50;;;;;;;;;;;20.40;40.30;;;;;;5107989;28;19973;-72
2023/01/16 05:23:16;;;;;;;;;;;20.40;40.30;;;;;;5097406;28;19924;-72
2023/01/16 05:25:45;;;;;;;;;;;20.40;40.30;;;;;;5094419;28;20359;-73
2023/01/16 05:28:11;;;;;;;;;;;20.30;40.30;;;;;;5094135;28;19920;-72
2023/01/16 05:30:36;;;;;;;;;;;20.30;40.20;;;;;;5093885;28;20018;-72
2023/01/16 05:33:04;;;;;;;;;;;20.40;40.20;;;;;;5094006;28;20007;-72
2023/01/16 05:35:30;;;;;;;;;;;20.30;40.20;;;;;;5094133;28;19978;-72
2023/01/16 05:37:58;;;;;;;;;;;20.40;40.20;;;;;;5128204;27;20379;-72
2023/01/16 05:40:24;;;;;;;;;;;20.40;40.20;;;;;;5093786;28;19927;-72
2023/01/16 05:42:49;;;;;;;;;;;20.40;40.20;;;;;;5094000;28;19920;-72
2023/01/16 05:45:15;;;;;;;;;;;20.40;40.20;;;;;;5094022;28;20375;-72
2023/01/16 05:47:40;;;;;;;;;;;20.40;40.20;;;;;;5093123;28;20291;-72
2023/01/16 05:50:06;;;;;;;;;;;20.40;40.20;;;;;;5094898;28;19920;-72
2023/01/16 05:52:32;;;;;;;;;;;20.40;40.10;;;;;;5094825;28;19928;-72
2023/01/16 05:54:57;;;;;;;;;;;20.40;40.10;;;;;;5093778;28;20018;-73
2023/01/16 05:57:23;;;;;;;;;;;20.40;40.20;;;;;;5093527;28;19920;-73
2023/01/16 05:59:49;;;;;;;;;;;20.40;40.20;;;;;;5093704;28;19920;-72
2023/01/16 06:02:15;;;;;;;;;;;20.30;40.10;;;;;;5094738;28;19982;-72
2023/01/16 06:04:41;;;;;;;;;;;20.30;40.20;;;;;;5092537;28;20393;-73
2023/01/16 06:07:06;;;;;;;;;;;20.30;40.10;;;;;;5093306;28;20046;-72
2023/01/16 06:09:32;;;;;;;;;;;20.40;40.20;;;;;;5093422;28;20375;-70
2023/01/16 06:11:57;;;;;;;;;;;20.40;40.10;;;;;;5091438;28;19931;-70
2023/01/16 06:14:23;;;;;;;;;;;20.40;40.10;;;;;;5092371;28;19920;-71
2023/01/16 06:16:49;;;;;;;;;;;20.30;40.10;;;;;;5094414;28;19921;-70
2023/01/16 06:19:14;;;;;;;;;;;20.40;40.00;;;;;;5092538;28;19920;-71
2023/01/16 06:21:40;;;;;;;;;;;20.30;40.00;;;;;;5093214;28;19965;-70
2023/01/16 06:24:05;;;;;;;;;;;20.40;39.90;;;;;;5093053;28;19974;-71
2023/01/16 06:26:31;;;;;;;;;;;20.30;39.80;;;;;;5092853;28;19928;-71
2023/01/16 06:28:56;;;;;;;;;;;20.30;39.70;;;;;;5092281;28;19920;-72
2023/01/16 06:31:22;;;;;;;;;;;20.40;39.60;;;;;;5092787;28;19967;-70
2023/01/16 06:33:48;;;;;;;;;;;20.30;39.50;;;;;;5091984;28;19927;-70
2023/01/16 06:36:14;;;;;;;;;;;20.30;39.50;;;;;;5093915;28;19920;-71
2023/01/16 06:38:39;;;;;;;;;;;20.20;39.50;;;;;;5092921;28;19920;-70
2023/01/16 06:41:05;;;;;;;;;;;20.10;39.50;;;;;;5093774;28;19978;-71
2023/01/16 06:43:30;;;;;;;;;;;20.10;39.60;;;;;;5092806;28;19920;-71
2023/01/16 06:45:56;;;;;;;;;;;20.10;39.60;;;;;;5092297;28;19920;-70
2023/01/16 06:48:22;;;;;;;;;;;20.10;39.50;;;;;;5090013;28;20015;-71
2023/01/16 06:50:48;;;;;;;;;;;20.20;39.50;;;;;;5089520;28;19936;-70
2023/01/16 06:53:16;;;;;;;;;;;20.20;39.30;;;;;;5091789;28;19923;-71
2023/01/16 06:55:42;;;;;;;;;;;20.30;39.40;;;;;;5110010;27;19929;-71
2023/01/16 06:58:08;;;;;;;;;;;20.20;39.30;;;;;;5071555;28;20299;-71
2023/01/16 07:00:34;;;;;;;;;;;20.30;39.30;;;;;;5089977;28;20389;-71
2023/01/16 07:03:00;;;;;;;;;;;20.30;39.20;;;;;;5090766;28;19970;-71
2023/01/16 07:05:29;;;;;;;;;;;20.30;39.10;;;;;;5089324;28;19928;-70
2023/01/16 07:07:55;;;;;;;;;;;20.30;39.20;;;;;;5091235;28;19927;-71
2023/01/16 07:10:20;;;;;;;;;;;20.30;39.20;;;;;;5097327;28;19927;-71
2023/01/16 07:12:47;;;;;;;;;;;20.30;39.20;;;;;;5090207;28;19919;-71
2023/01/16 07:23:34;;;;;;;;;;;20.30;38.90;;;;;;5093262;28;19954;-72
2023/01/16 07:26:04;;;;;;;;;;;20.30;38.80;;;;;;5089605;28;19920;-71
2023/01/16 07:28:31;;;;;;;;;;;20.30;38.80;;;;;;5113790;27;20426;-72
2023/01/16 07:30:57;;;;;;;;;;;20.30;38.60;;;;;;5055161;27;20115;-70
2023/01/16 07:33:23;;;;;;;;;;;20.30;38.50;;;;;;5097595;27;19935;-74
2023/01/16 07:35:49;;;;;;;;;;;20.30;38.50;;;;;;5076668;28;19981;-70
2023/01/16 07:38:14;;;;;;;;;;;20.30;38.70;;;;;;5071395;28;19924;-77
2023/01/16 07:40:43;;;;;;;;;;;20.20;38.80;;;;;;5076968;28;20304;-75
2023/01/16 07:43:08;;;;;;;;;;;20.20;39.00;;;;;;5078395;28;20006;-73
2023/01/16 07:45:34;;;;;;;;;;;20.20;39.10;;;;;;5080775;28;20034;-77
2023/01/16 07:48:00;;;;;;;;;;;20.30;39.20;;;;;;5076635;28;20331;-72
2023/01/16 07:50:26;;;;;;;;;;;20.20;39.10;;;;;;5089837;28;19931;-77
2023/01/16 07:52:51;;;;;;;;;;;20.20;39.10;;;;;;5092312;28;19924;-76
2023/01/16 07:55:17;;;;;;;;;;;20.20;39.20;;;;;;5074863;28;20018;-76
2023/01/16 07:57:43;;;;;;;;;;;20.20;39.20;;;;;;5108718;27;19963;-74
2023/01/16 08:00:10;;;;;;;;;;;20.20;39.20;;;;;;5100231;27;20344;-71
2023/01/16 08:02:35;;;;;;;;;;;20.20;39.20;;;;;;5076004;28;20592;-73
2023/01/16 08:05:01;;;;;;;;;;;20.20;39.20;;;;;;5073197;28;19928;-71
2023/01/16 08:07:27;;;;;;;;;;;20.10;39.20;;;;;;5094676;28;19992;-73
2023/01/16 08:09:52;;;;;;;;;;;20.20;39.20;;;;;;5073934;28;20381;-74
2023/01/16 08:12:18;;;;;;;;;;;20.20;39.20;;;;;;5073679;28;20378;-71
2023/01/16 08:14:43;;;;;;;;;;;20.10;39.10;;;;;;5070839;28;19924;-72
2023/01/16 08:17:09;;;;;;;;;;;20.10;39.10;;;;;;5095000;28;19930;-70
2023/01/16 08:19:34;;;;;;;;;;;20.10;39.10;;;;;;5074260;28;19960;-73
2023/01/16 08:22:03;;;;;;;;;;;20.10;39.10;;;;;;5069735;28;19968;-72
2023/01/16 08:24:29;;;;;;;;;;;20.10;39.10;;;;;;5091206;28;19963;-72
2023/01/16 08:26:55;;;;;;;;;;;20.10;39.00;;;;;;5091779;28;19938;-71
2023/01/16 08:29:21;;;;;;;;;;;20.10;39.00;;;;;;5077945;28;20430;-71
2023/01/16 08:31:46;;;;;;;;;;;20.10;38.90;;;;;;5085446;28;19928;-73
2023/01/16 08:34:12;;;;;;;;;;;20.20;39.00;;;;;;5070949;28;19980;-75
2023/01/16 08:36:37;;;;;;;;;;;20.20;39.10;;;;;;5080537;28;19923;-73
2023/01/16 08:39:03;;;;;;;;;;;20.10;39.10;;;;;;5074069;28;20375;-71
2023/01/16 08:52:33;;;;;;;;;;;20.20;39.00;;;;;;5072851;28;20014;-75
2023/01/16 08:54:59;;;;;;;;;;;20.20;39.00;;;;;;5093663;28;21567;-73
2023/01/16 08:57:25;;;;;;;;;;;20.10;38.90;;;;;;5111440;27;19923;-73
2023/01/16 08:59:51;;;;;;;;;;;20.10;38.90;;;;;;5101249;28;19924;-74
2023/01/16 09:02:19;;;;;;;;;;;20.10;38.90;;;;;;5082370;28;20417;-73
2023/01/16 09:04:44;;;;;;;;;;;20.10;39.00;;;;;;5100198;27;20009;-74
2023/01/16 09:07:10;;;;;;;;;;;20.10;38.90;;;;;;5097336;28;19928;-71
2023/01/16 09:09:35;;;;;;;;;;;20.10;38.90;;;;;;5097063;28;19931;-71
2023/01/16 09:14:47;;;;;;;;;;;20.10;38.90;;;;;;5076072;27;19927;-74
2023/01/16 09:17:13;;;;;;;;;;;20.10;38.90;;;;;;5078401;28;20737;-70
2023/01/16 09:19:38;;;;;;;;;;;20.10;38.90;;;;;;5095265;28;20448;-71
2023/01/16 09:22:05;;;;;;;;;;;20.10;38.90;;;;;;5076209;28;20303;-71
2023/01/16 09:24:31;;;;;;;;;;;20.10;39.10;;;;;;5081601;28;19931;-72
2023/01/16 09:26:57;;;;;;;;;;;20.10;39.20;;;;;;5094148;28;20010;-72
2023/01/16 09:29:22;;;;;;;;;;;20.10;39.20;;;;;;5075108;28;19930;-71
2023/01/16 09:31:48;;;;;;;;;;;20.10;39.20;;;;;;5072457;28;19938;-70
2023/01/16 09:34:13;;;;;;;;;;;20.10;39.40;;;;;;5092316;27;20344;-74
2023/01/16 09:36:39;;;;;;;;;;;20.10;39.30;;;;;;5076368;28;19931;-73
2023/01/16 09:39:04;;;;;;;;;;;20.10;39.50;;;;;;5094761;28;19928;-71
2023/01/16 09:44:21;;;;;;;;;;;20.10;39.50;;;;;;5075995;28;19923;-75
2023/01/16 09:46:49;;;;;;;;;;;20.10;39.60;;;;;;5075218;28;20473;-73
2023/01/16 09:49:20;;;;;;;;;;;20.00;39.70;;;;;;5081959;27;19934;-75
2023/01/16 10:00:15;;;;;;;;;;;19.90;40.30;;;;;;5090207;27;19985;-74
2023/01/16 10:02:41;;;;;;;;;;;19.70;40.60;;;;;;5094221;27;19977;-77
2023/01/16 10:05:07;;;;;;;;;;;19.90;40.80;;;;;;5069513;28;20010;-79
2023/01/16 10:10:34;;;;;;;;;;;19.90;41.10;;;;;;5059935;27;1880626;-73
2023/01/16 10:13:19;;;;;;;;;;;20.00;41.20;;;;;;5088676;28;19931;-74
2023/01/16 10:15:52;;;;;;;;;;;19.90;41.40;;;;;;5088284;27;20385;-74
2023/01/16 10:18:37;;;;;;;;;;;19.90;41.40;;;;;;5086570;28;19924;-72
2023/01/16 10:26:28;;;;;;;;;;;20.00;41.90;;;;;;5040669;27;19955;-84
2023/01/16 10:28:59;;;;;;;;;;;19.90;42.00;;;;;;5035601;28;20081;-84
2023/01/16 10:31:36;;;;;;;;;;;19.80;42.10;;;;;;5043045;28;19952;-84
2023/01/16 10:34:11;;;;;;;;;;;19.80;42.10;;;;;;5052139;28;19973;-85
2023/01/16 10:36:40;;;;;;;;;;;19.80;42.10;;;;;;5047939;28;20422;-88
2023/01/16 10:39:09;;;;;;;;;;;19.70;42.10;;;;;;5051937;28;19929;-83
2023/01/16 10:49:55;;;;;;;;;;;19.50;42.10;;;;;;5101547;28;20407;-74
2023/01/16 10:52:21;;;;;;;;;;;19.60;42.30;;;;;;5102761;28;19928;-75
2023/01/16 10:54:47;;;;;;;;;;;19.50;42.30;;;;;;5101256;28;19931;-71
2023/01/16 10:57:15;;;;;;;;;;;19.50;42.40;;;;;;5096149;28;19924;-76
2023/01/16 10:59:42;;;;;;;;;;;19.50;42.50;;;;;;5100136;28;19923;-72
2023/01/16 11:02:16;;;;;;;;;;;19.50;42.50;;;;;;5094928;28;19932;-72
2023/01/16 11:04:41;;;;;;;;;;;19.50;42.50;;;;;;5104273;28;19928;-72
2023/01/16 11:07:12;;;;;;;;;;;19.50;42.40;;;;;;5106255;28;19920;-80
2023/01/16 11:09:38;;;;;;;;;;;19.50;42.40;;;;;;5106597;28;19924;-78
2023/01/16 11:20:31;;;;;;;;;;;19.50;42.10;;;;;;5100579;28;19919;-73
2023/01/16 11:25:38;;;;;;;;;;;19.50;42.40;;;;;;5073124;27;19954;-71
2023/01/16 11:28:06;;;;;;;;;;;19.50;42.50;;;;;;5081554;28;19925;-69
2023/01/16 11:30:36;;;;;;;;;;;19.50;42.40;;;;;;5052856;28;19939;-67
2023/01/16 11:33:07;;;;;;;;;;;19.60;42.30;;;;;;5056522;28;19935;-68
2023/01/16 11:35:34;;;;;;;;;;;19.60;42.20;;;;;;5058570;28;20287;-68
2023/01/16 11:38:03;;;;;;;;;;;19.70;42.10;;;;;;5057960;28;20068;-69
2023/01/16 11:40:35;;;;;;;;;;;19.80;41.90;;;;;;5059565;28;19924;-68
2023/01/16 11:46:02;;;;;;;;;;;19.90;41.70;;;;;;5090613;28;20044;-76
2023/01/16 11:48:46;;;;;;;;;;;19.90;41.50;;;;;;5085049;28;19924;-70
2023/01/16 11:51:14;;;;;;;;;;;19.90;41.50;;;;;;5055327;28;19965;-76
2023/01/16 11:53:42;;;;;;;;;;;19.90;41.50;;;;;;5056526;28;19931;-70
2023/01/16 11:56:16;;;;;;;;;;;19.80;41.50;;;;;;5057140;28;19978;-69
2023/01/16 12:04:12;;;;;;;;;;;19.80;41.90;;;;;;5090037;27;20412;-72
2023/01/16 12:06:58;;;;;;;;;;;19.70;41.90;;;;;;5074725;28;19939;-73
2023/01/16 12:09:43;;;;;;;;;;;19.70;42.10;;;;;;5069678;28;19929;-72
2023/01/16 12:15:01;;;;;;;;;;;19.70;42.10;;;;;;5060308;28;19957;-69
2023/01/16 12:20:22;;;;;;;;;;;19.70;42.30;;;;;;5075006;27;19920;-71
2023/01/16 12:22:55;;;;;;;;;;;19.70;42.40;;;;;;5104592;28;19960;-74
2023/01/16 12:25:25;;;;;;;;;;;19.70;42.60;;;;;;5068501;28;19920;-71
2023/01/16 12:28:10;;;;;;;;;;;19.70;42.60;;;;;;5069104;28;20350;-69
2023/01/16 12:30:58;;;;;;;;;;;19.70;42.60;;;;;;5074898;28;19951;-71
2023/01/16 12:33:31;;;;;;;;;;;19.70;42.60;;;;;;5065352;28;20669;-69
2023/01/16 12:36:01;;;;;;;;;;;19.70;42.50;;;;;;5068853;28;20089;-71
2023/01/16 12:38:30;;;;;;;;;;;19.70;42.50;;;;;;5070853;28;20047;-71
2023/01/16 12:43:40;;;;;;;;;;;19.70;42.50;;;;;;5069457;27;20422;-64
2023/01/16 12:46:11;;;;;;;;;;;19.70;42.60;;;;;;5070366;28;19924;-71
2023/01/16 12:48:57;;;;;;;;;;;19.70;42.80;;;;;;5067914;28;19921;-71
2023/01/16 12:54:25;;;;;;;;;;;19.70;42.80;;;;;;5085620;27;20405;-70
2023/01/16 12:56:57;;;;;;;;;;;19.60;42.80;;;;;;5099693;27;19928;-73
2023/01/16 12:59:25;;;;;;;;;;;19.70;42.90;;;;;;5090727;28;19931;-72
2023/01/16 13:01:55;;;;;;;;;;;19.70;42.90;;;;;;5104208;27;20257;-71
2023/01/16 13:04:23;;;;;;;;;;;19.70;43.70;;;;;;5074819;28;20367;-73
2023/01/16 13:06:51;;;;;;;;;;;19.60;42.90;;;;;;5078689;28;20303;-72
2023/01/16 13:09:25;;;;;;;;;;;19.60;42.90;;;;;;5106230;27;20327;-69
2023/01/16 13:14:45;;;;;;;;;;;19.60;42.90;;;;;;5076177;28;19924;-73
2023/01/16 13:17:12;;;;;;;;;;;19.60;42.90;;;;;;5072936;28;19973;-74
2023/01/16 13:19:39;;;;;;;;;;;19.60;42.90;;;;;;5064642;28;19990;-72
2023/01/16 13:24:48;;;;;;;;;;;19.60;42.70;;;;;;5086945;27;19939;-71
2023/01/16 13:27:16;;;;;;;;;;;19.60;42.70;;;;;;5088262;28;19923;-72
2023/01/16 13:29:47;;;;;;;;;;;19.70;42.90;;;;;;5087136;28;19928;-69
2023/01/16 13:35:04;;;;;;;;;;;19.70;43.20;;;;;;5107974;27;19920;-69
2023/01/16 13:37:38;;;;;;;;;;;19.70;43.40;;;;;;5087895;28;19928;-73
2023/01/16 13:40:24;;;;;;;;;;;19.70;43.60;;;;;;5088890;28;19928;-73
2023/01/16 13:42:52;;;;;;;;;;;19.70;43.80;;;;;;5126089;27;19928;-74
2023/01/16 13:45:54;;;;;;;;;;;19.70;43.90;;;;;;5125892;27;19936;-75
2023/01/16 13:48:10;;;;;;;;;;;19.70;44.10;;;;;;5090724;28;19931;-75
2023/01/16 13:50:36;;;;;;;;;;;19.60;44.50;;;;;;5092569;28;19923;-72
2023/01/16 13:53:04;;;;;;;;;;;19.60;45.00;;;;;;5111987;28;19954;-75
2023/01/16 13:55:32;;;;;;;;;;;19.50;45.30;;;;;;5090492;28;20379;-75
2023/01/16 13:58:17;;;;;;;;;;;19.50;45.40;;;;;;5086367;28;19985;-73
2023/01/16 14:00:44;;;;;;;;;;;19.40;45.40;;;;;;5083712;28;19928;-72
2023/01/16 14:03:22;;;;;;;;;;;19.30;45.60;;;;;;5127050;27;20638;-64
2023/01/16 14:05:49;;;;;;;;;;;19.30;46.00;;;;;;5093853;28;19971;-64
2023/01/16 14:09:07;;;;;;;;;;;19.30;46.40;;;;;;5092377;28;20379;-64
2023/01/16 14:11:40;;;;;;;;;;;19.30;46.50;;;;;;5088966;28;20334;-69
2023/01/16 14:17:01;;;;;;;;;;;19.40;46.40;;;;;;5093637;27;19948;-63
2023/01/16 14:19:34;;;;;;;;;;;19.40;46.20;;;;;;5082664;28;19924;-62
2023/01/16 14:24:51;;;;;;;;;;;19.50;45.90;;;;;;5095410;27;19938;-70
2023/01/16 14:27:19;;;;;;;;;;;19.50;45.50;;;;;;5079498;28;19920;-71
2023/01/16 14:29:49;;;;;;;;;;;19.50;45.20;;;;;;5086185;28;19929;-71
2023/01/16 14:32:17;;;;;;;;;;;19.50;44.80;;;;;;5104699;28;19927;-71
2023/01/16 14:34:53;;;;;;;;;;;19.60;44.60;;;;;;5084872;28;19943;-67
2023/01/16 14:37:24;;;;;;;;;;;19.50;44.30;;;;;;5084303;28;20070;-71
2023/01/16 14:39:53;;;;;;;;;;;19.50;44.30;;;;;;5086595;28;19981;-72
2023/01/16 14:56:40;;;;;;;;;;;19.60;43.40;;;;;;5122132;27;19920;-73
2023/01/16 14:59:28;;;;;;;;;;;19.70;43.20;;;;;;5122012;27;20319;-69
2023/01/16 15:04:47;;;;;;;;;;;19.80;43.00;;;;;;5123463;28;19942;-70
2023/01/16 15:07:18;;;;;;;;;;;19.70;42.80;;;;;;5123546;28;20298;-71
2023/01/16 15:09:44;;;;;;;;;;;19.70;42.90;;;;;;5127065;27;19920;-71
2023/01/16 15:12:14;;;;;;;;;;;19.70;42.90;;;;;;5125898;27;19931;-70
2023/01/16 15:14:51;;;;;;;;;;;19.60;42.90;;;;;;5120561;28;19926;-70
2023/01/16 15:23:16;;;;;;;;;;;19.50;43.10;;;;;;5124104;28;19928;-70
2023/01/16 15:28:34;;;;;;;;;;;19.40;43.10;;;;;;5107999;27;19918;-70
2023/01/16 15:31:01;;;;;;;;;;;19.30;43.20;;;;;;5101725;28;20375;-70
2023/01/16 15:33:59;;;;;;;;;;;19.30;43.30;;;;;;5107490;28;20136;-72
2023/01/16 15:38:57;;;;;;;;;;;19.20;44.10;;;;;;5108320;27;19938;-70
2023/01/16 15:47:06;;;;;;;;;;;19.10;43.60;;;;;;5107204;28;20022;-70
2023/01/16 15:49:52;;;;;;;;;;;19.00;43.60;;;;;;5109759;28;19926;-71
2023/01/16 15:52:17;;;;;;;;;;;18.90;43.70;;;;;;5122983;28;19959;-72
2023/01/16 15:54:43;;;;;;;;;;;18.80;43.80;;;;;;5127429;27;19954;-72
2023/01/16 15:57:14;;;;;;;;;;;18.80;43.90;;;;;;5124976;28;20382;-72
2023/01/16 15:59:48;;;;;;;;;;;18.80;44.10;;;;;;5107526;28;19971;-72
2023/01/16 16:02:16;;;;;;;;;;;18.70;44.20;;;;;;5107603;28;20374;-72
2023/01/16 16:04:42;;;;;;;;;;;18.60;44.20;;;;;;5107360;28;19965;-72
2023/01/16 16:07:08;;;;;;;;;;;18.60;44.30;;;;;;5107884;28;20366;-72
2023/01/16 16:09:34;;;;;;;;;;;18.60;44.40;;;;;;5107611;28;19920;-72
2023/01/16 16:12:02;;;;;;;;;;;18.50;44.40;;;;;;5108439;28;19920;-71
2023/01/16 16:20:23;;;;;;;;;;;18.50;44.60;;;;;;5106562;28;19920;-74
2023/01/16 16:22:49;;;;;;;;;;;18.50;44.60;;;;;;5108120;28;19981;-72
2023/01/16 16:25:22;;;;;;;;;;;18.50;44.60;;;;;;5106875;28;20383;-72
2023/01/16 16:27:48;;;;;;;;;;;18.50;44.70;;;;;;5107179;28;20382;-73
2023/01/16 16:30:17;;;;;;;;;;;18.40;44.70;;;;;;5108678;28;19927;-73
2023/01/16 16:32:43;;;;;;;;;;;18.50;44.70;;;;;;5107307;28;19920;-72
2023/01/16 16:35:16;;;;;;;;;;;18.40;44.70;;;;;;5106679;28;20290;-72
2023/01/16 16:37:44;;;;;;;;;;;18.40;44.70;;;;;;5106202;28;20164;-72
2023/01/16 16:42:52;;;;;;;;;;;18.30;44.80;;;;;;5109462;27;19918;-70
2023/01/16 16:45:19;;;;;;;;;;;18.30;44.90;;;;;;5107618;28;20418;-70
2023/01/16 16:47:47;;;;;;;;;;;18.30;44.90;;;;;;5108050;28;19920;-72
2023/01/16 16:53:04;;;;;;;;;;;18.20;45.10;;;;;;5108630;27;19912;-71
2023/01/16 16:55:32;;;;;;;;;;;18.20;45.10;;;;;;5107656;28;20406;-71
2023/01/16 16:57:59;;;;;;;;;;;18.10;45.10;;;;;;5107414;28;19934;-71
2023/01/16 17:00:25;;;;;;;;;;;18.10;45.20;;;;;;5108240;28;19927;-71
2023/01/16 17:02:53;;;;;;;;;;;18.10;45.30;;;;;;5108748;28;19920;-70
2023/01/16 17:05:19;;;;;;;;;;;18.00;45.30;;;;;;5107583;28;19946;-71
2023/01/16 17:07:45;;;;;;;;;;;17.90;45.40;;;;;;5107982;28;19936;-71
2023/01/16 17:10:12;;;;;;;;;;;17.90;45.50;;;;;;5099675;28;19927;-71
2023/01/16 17:12:39;;;;;;;;;;;17.90;45.60;;;;;;5106258;28;20379;-71
2023/01/16 17:15:05;;;;;;;;;;;17.80;45.70;;;;;;5105538;28;19924;-70
2023/01/16 17:17:31;;;;;;;;;;;17.80;45.80;;;;;;5106327;28;19920;-70
2023/01/16 17:19:56;;;;;;;;;;;17.70;45.90;;;;;;5108768;28;20492;-70
2023/01/16 17:22:22;;;;;;;;;;;17.70;46.00;;;;;;5109221;28;19931;-69
2023/01/16 17:24:50;;;;;;;;;;;17.70;46.00;;;;;;5107694;28;19920;-69